createdAt,value
2023-01-07T00:02:14.793Z,97834.97
2023-01-07T00:07:06.582Z,97823.84
2023-01-07T00:11:58.224Z,97820.59
2023-01-07T00:16:50.060Z,97792.66
2023-01-07T00:21:42.607Z,97784.00
2023-01-07T00:26:36.363Z,97773.97
2023-01-07T00:31:34.553Z,97766.38
2023-01-07T00:36:32.028Z,97746.31
2023-01-07T00:41:24.242Z,97714.59
2023-01-07T00:46:16.156Z,97708.38
2023-01-07T00:51:10.992Z,97684.50
2023-01-07T00:56:02.673Z,97656.03
2023-01-07T01:00:56.542Z,97641.38
2023-01-07T01:05:48.334Z,97640.84
2023-01-07T01:10:39.966Z,97650.31
2023-01-07T01:15:31.923Z,97618.34
2023-01-07T01:20:23.671Z,97615.34
2023-01-07T01:25:15.500Z,97602.31
2023-01-07T01:30:08.159Z,97602.84
2023-01-07T01:34:59.853Z,97576.84
2023-01-07T01:39:51.514Z,97587.41
2023-01-07T01:44:48.941Z,97576.81
2023-01-07T01:49:47.902Z,97577.63
2023-01-07T01:54:43.401Z,97553.78
2023-01-07T01:59:39.573Z,97559.47
2023-01-07T02:04:31.822Z,97561.66
2023-01-07T02:09:23.879Z,97549.72
2023-01-07T02:14:49.396Z,97554.59
2023-01-07T02:20:12.964Z,97545.13
2023-01-07T02:25:26.194Z,97540.22
2023-01-07T02:31:03.380Z,97544.59
2023-01-07T02:36:10.179Z,97535.66
2023-01-07T02:41:18.130Z,97531.31
2023-01-07T02:46:26.957Z,97520.75
2023-01-07T02:51:19.073Z,97507.72
2023-01-07T02:56:41.836Z,97518.84
2023-01-07T03:01:34.226Z,97509.06
2023-01-07T03:06:54.732Z,97498.25
2023-01-07T03:11:55.301Z,97485.25
2023-01-07T03:16:57.543Z,97485.78
2023-01-07T03:21:50.318Z,97480.63
2023-01-07T03:26:49.017Z,97465.16
2023-01-07T03:31:51.538Z,97461.91
2023-01-07T03:36:49.232Z,97441.00
2023-01-07T03:41:59.775Z,97439.13
2023-01-07T03:46:53.239Z,97420.16
2023-01-07T03:51:46.094Z,97428.81
2023-01-07T03:56:37.783Z,97429.09
2023-01-07T04:01:30.730Z,97404.72
2023-01-07T04:06:22.583Z,97394.13
2023-01-07T04:11:14.235Z,97384.38
2023-01-07T04:16:06.159Z,97383.56
2023-01-07T04:20:57.817Z,97356.47
2023-01-07T04:25:49.987Z,97355.09
2023-01-07T04:30:42.180Z,97325.53
2023-01-07T04:35:34.304Z,97337.75
2023-01-07T04:40:26.635Z,97285.72
2023-01-07T04:45:18.482Z,97304.69
2023-01-07T04:50:10.263Z,97278.69
2023-01-07T04:55:01.892Z,97278.94
2023-01-07T04:59:53.595Z,97273.78
2023-01-07T05:04:45.484Z,97274.31
2023-01-07T05:09:37.300Z,97252.38
2023-01-07T05:14:28.959Z,97236.69
2023-01-07T05:19:21.876Z,97216.66
2023-01-07T05:24:13.836Z,97216.66
2023-01-07T05:29:05.612Z,97205.00
2023-01-07T05:33:57.279Z,97189.03
2023-01-07T05:38:48.921Z,97187.41
2023-01-07T05:43:40.604Z,97183.09
2023-01-07T05:48:32.367Z,97159.78
2023-01-07T05:53:24.185Z,97155.97
2023-01-07T05:58:15.938Z,97144.34
2023-01-07T06:03:07.712Z,97130.78
2023-01-07T06:07:59.401Z,97122.66
2023-01-07T06:12:51.500Z,97121.03
2023-01-07T06:17:43.163Z,97113.47
2023-01-07T06:22:35.318Z,97085.84
2023-01-07T06:27:26.947Z,97087.44
2023-01-07T06:32:18.671Z,97076.91
2023-01-07T06:37:10.446Z,97080.69
2023-01-07T06:42:02.235Z,97056.88
2023-01-07T06:46:53.828Z,97048.78
2023-01-07T06:51:45.486Z,97057.22
2023-01-07T06:56:37.184Z,97042.59
2023-01-07T07:01:29.050Z,97026.91
2023-01-07T07:06:20.833Z,97020.97
2023-01-07T07:11:12.533Z,97022.06
2023-01-07T07:16:04.513Z,97026.44
2023-01-07T07:20:56.868Z,97018.59
2023-01-07T07:25:48.453Z,97019.72
2023-01-07T07:30:46.762Z,97038.94
2023-01-07T07:35:39.864Z,97044.91
2023-01-07T07:40:31.547Z,97025.13
2023-01-07T07:45:23.268Z,97016.78
2023-01-07T07:50:15.018Z,97013.00
2023-01-07T07:55:20.149Z,97013.00
2023-01-07T08:00:17.883Z,96995.91
2023-01-07T08:05:11.606Z,96995.91
2023-01-07T08:10:03.831Z,96986.72
2023-01-07T08:14:55.499Z,96987.22
2023-01-07T08:19:47.238Z,96981.81
2023-01-07T08:24:38.893Z,96974.25
2023-01-07T08:29:30.953Z,96972.63
2023-01-07T08:34:24.934Z,96968.84
2023-01-07T08:39:16.804Z,96953.72
2023-01-07T08:44:08.469Z,96956.16
2023-01-07T08:49:00.718Z,96952.13
2023-01-07T08:53:52.335Z,96947.28
2023-01-07T08:58:43.972Z,96929.16
2023-01-07T09:03:35.673Z,96924.03
2023-01-07T09:08:27.347Z,96903.19
2023-01-07T09:13:19.157Z,96866.38
2023-01-07T09:18:10.845Z,96858.78
2023-01-07T09:23:02.507Z,96860.97
2023-01-07T09:27:54.220Z,96861.50
2023-01-07T09:32:45.945Z,96858.50
2023-01-07T09:37:37.755Z,96852.53
2023-01-07T09:42:55.111Z,96860.38
2023-01-07T09:47:53.752Z,96872.56
2023-01-07T09:52:50.940Z,96936.16
2023-01-07T09:57:42.860Z,96919.94
2023-01-07T10:02:50.134Z,96921.06
2023-01-07T10:08:31.413Z,96919.47
2023-01-07T10:13:42.322Z,96925.13
2023-01-07T10:18:36.648Z,96915.09
2023-01-07T10:23:37.837Z,96920.50
2023-01-07T10:29:11.029Z,96915.81
2023-01-07T10:34:03.300Z,96943.69
2023-01-07T10:39:23.004Z,96926.88
2023-01-07T10:44:23.899Z,96940.69
2023-01-07T10:49:23.068Z,96952.59
2023-01-07T10:54:52.444Z,96942.06
2023-01-07T10:59:50.725Z,96945.88
2023-01-07T11:04:42.455Z,96952.69
2023-01-07T11:09:40.033Z,96943.22
2023-01-07T11:14:36.475Z,96942.38
2023-01-07T11:19:49.370Z,96939.06
2023-01-07T11:24:41.018Z,96923.19
2023-01-07T11:29:38.994Z,96929.69
2023-01-07T11:34:35.306Z,96904.25
2023-01-07T11:39:29.784Z,96906.75
2023-01-07T11:44:22.175Z,96916.28
2023-01-07T11:49:30.394Z,96932.88
2023-01-07T11:54:25.521Z,96935.00
2023-01-07T11:59:19.992Z,96935.50
2023-01-07T12:04:19.126Z,96926.06
2023-01-07T12:09:32.535Z,96919.00
2023-01-07T12:14:24.177Z,96910.56
2023-01-07T12:19:44.247Z,96908.66
2023-01-07T12:24:38.636Z,96878.09
2023-01-07T12:29:54.658Z,96870.28
2023-01-07T12:34:58.018Z,96861.94
2023-01-07T12:40:23.444Z,96841.56
2023-01-07T12:45:21.877Z,96842.16
2023-01-07T12:50:16.311Z,96827.78
2023-01-07T12:55:17.337Z,96817.75
2023-01-07T13:00:26.661Z,96823.22
2023-01-07T13:05:25.928Z,96813.78
2023-01-07T13:10:34.707Z,96806.72
2023-01-07T13:15:35.872Z,96794.06
2023-01-07T13:20:36.729Z,96785.47
2023-01-07T13:25:43.159Z,96779.31
2023-01-07T13:31:26.223Z,96768.31
2023-01-07T13:36:45.359Z,96758.72
2023-01-07T13:41:55.500Z,96761.84
2023-01-07T13:46:47.924Z,96752.75
2023-01-07T13:51:39.818Z,96764.75
2023-01-07T13:56:38.474Z,96764.84
2023-01-07T14:01:32.968Z,96770.38
2023-01-07T14:06:27.435Z,96759.91
2023-01-07T14:11:39.033Z,96762.13
2023-01-07T14:16:40.704Z,96757.56
2023-01-07T14:21:55.601Z,96740.81
2023-01-07T14:27:24.879Z,96735.69
2023-01-07T14:32:33.031Z,96733.88
2023-01-07T14:37:32.682Z,96728.53
2023-01-07T14:42:27.693Z,96717.78
2023-01-07T14:47:41.068Z,96714.78
2023-01-07T14:53:14.727Z,96688.28
2023-01-07T14:58:16.407Z,96688.38
2023-01-07T15:03:13.953Z,96687.31
2023-01-07T15:08:28.061Z,96675.47
2023-01-07T15:13:40.173Z,96671.22
2023-01-07T15:18:42.789Z,96670.44
2023-01-07T15:23:53.838Z,96673.22
2023-01-07T15:28:57.575Z,96669.75
2023-01-07T15:33:55.944Z,96662.47
2023-01-07T15:38:56.026Z,96670.66
2023-01-07T15:43:47.838Z,96676.63
2023-01-07T15:48:39.512Z,96688.00
2023-01-07T15:53:32.161Z,96665.31
2023-01-07T15:58:35.234Z,96658.56
2023-01-07T16:03:27.922Z,96664.00
2023-01-07T16:08:32.727Z,96661.63
2023-01-07T16:13:24.389Z,96673.78
2023-01-07T16:18:19.192Z,96677.88
2023-01-07T16:23:10.810Z,96686.84
2023-01-07T16:28:04.391Z,96682.88
2023-01-07T16:32:56.826Z,96667.59
2023-01-07T16:37:49.289Z,96663.88
2023-01-07T16:42:48.294Z,96675.00
2023-01-07T16:47:39.925Z,96677.47
2023-01-07T16:52:34.465Z,96701.84
2023-01-07T16:57:34.187Z,96720.25
2023-01-07T17:02:25.809Z,96729.22
2023-01-07T17:07:27.066Z,96718.72
2023-01-07T17:12:40.211Z,96714.97
2023-01-07T17:17:33.942Z,96688.56
2023-01-07T17:22:31.499Z,96694.78
2023-01-07T17:27:27.500Z,96709.06
2023-01-07T17:32:19.716Z,96701.00
2023-01-07T17:37:16.031Z,96695.59
2023-01-07T17:42:48.037Z,96666.47
2023-01-07T17:47:40.237Z,96673.25
2023-01-07T17:52:32.000Z,96668.94
2023-01-07T17:57:23.725Z,96677.31
2023-01-07T18:02:20.541Z,96661.66
2023-01-07T18:07:16.639Z,96674.63
2023-01-07T18:12:35.073Z,96655.22
2023-01-07T18:17:27.747Z,96685.09
2023-01-07T18:22:21.121Z,96682.44
2023-01-07T18:27:17.485Z,96696.66
2023-01-07T18:32:09.886Z,96702.28
2023-01-07T18:37:02.505Z,96721.13
2023-01-07T18:41:54.442Z,96719.47
2023-01-07T18:46:46.455Z,96716.22
2023-01-07T18:51:38.448Z,96734.50
2023-01-07T18:56:30.510Z,96715.13
2023-01-07T19:01:23.017Z,96730.44
2023-01-07T19:06:15.836Z,96724.78
2023-01-07T19:11:09.235Z,96744.13
2023-01-07T19:16:01.688Z,96739.50
2023-01-07T19:20:53.411Z,96738.19
2023-01-07T19:25:51.974Z,96732.75
2023-01-07T19:30:43.813Z,96737.28
2023-01-07T19:35:35.511Z,96744.22
2023-01-07T19:40:27.311Z,96751.75
2023-01-07T19:45:19.090Z,96758.47
2023-01-07T19:50:11.379Z,96748.53
2023-01-07T19:55:03.173Z,96729.97
2023-01-07T19:59:54.859Z,96750.97
2023-01-07T20:04:46.587Z,96745.31
2023-01-07T20:09:38.347Z,96743.97
2023-01-07T20:14:30.634Z,96741.03
2023-01-07T20:19:23.459Z,96739.41
2023-01-07T20:24:15.613Z,96739.41
2023-01-07T20:29:07.829Z,96741.84
2023-01-07T20:34:00.843Z,96735.63
2023-01-07T20:38:52.730Z,96728.63
2023-01-07T20:43:44.479Z,96728.88
2023-01-07T20:48:37.004Z,96723.22
2023-01-07T20:53:29.769Z,96735.03
2023-01-07T20:58:21.614Z,96725.38
2023-01-07T21:03:13.264Z,96707.06
2023-01-07T21:08:05.058Z,96711.66
2023-01-07T21:12:56.723Z,96711.66
2023-01-07T21:17:49.174Z,96728.59
2023-01-07T21:22:41.840Z,96729.66
2023-01-07T21:27:33.602Z,96725.38
2023-01-07T21:32:25.327Z,96725.91
2023-01-07T21:37:17.172Z,96728.59
2023-01-07T21:42:09.435Z,96747.19
2023-01-07T21:47:01.292Z,96730.25
2023-01-07T21:51:53.293Z,96733.72
2023-01-07T21:56:45.199Z,96738.31
2023-01-07T22:01:37.316Z,96739.38
2023-01-07T22:06:32.237Z,96746.91
2023-01-07T22:11:25.823Z,96736.47
2023-01-07T22:16:18.304Z,96723.31
2023-01-07T22:21:10.418Z,96715.50
2023-01-07T22:26:04.984Z,96733.81
2023-01-07T22:31:00.028Z,96729.00
2023-01-07T22:35:53.427Z,96740.88
2023-01-07T22:40:45.510Z,96730.69
2023-01-07T22:45:55.691Z,96744.19
2023-01-07T22:50:47.817Z,96733.72
2023-01-07T22:55:40.941Z,96731.28
2023-01-07T23:00:48.260Z,96720.47
2023-01-07T23:05:40.132Z,96736.06
2023-01-07T23:10:32.249Z,96746.56
2023-01-07T23:15:24.429Z,96755.69
2023-01-07T23:20:16.418Z,96755.16
2023-01-07T23:25:08.630Z,96748.47
2023-01-07T23:30:00.379Z,96751.75
2023-01-07T23:34:52.186Z,96749.63
2023-01-07T23:39:44.027Z,96748.53
2023-01-07T23:44:35.911Z,96739.41
2023-01-07T23:49:27.586Z,96745.59
2023-01-07T23:54:19.394Z,96733.22
2023-01-07T23:59:11.410Z,96732.13
